createdAt,value
2022-11-09T00:03:58.282Z,100111.00
2022-11-09T00:09:05.793Z,100103.00
2022-11-09T00:14:13.976Z,100105.25
2022-11-09T00:19:17.210Z,100101.63
2022-11-09T00:24:18.952Z,100108.56
2022-11-09T00:29:20.759Z,100108.53
2022-11-09T00:34:25.313Z,100100.56
2022-11-09T00:39:27.116Z,100088.63
2022-11-09T00:44:32.886Z,100078.41
2022-11-09T00:49:36.081Z,100083.47
2022-11-09T00:54:37.894Z,100082.56
2022-11-09T00:59:39.739Z,100089.84
2022-11-09T01:04:42.891Z,100076.09
2022-11-09T01:09:44.715Z,100088.84
2022-11-09T01:14:46.536Z,100083.81
2022-11-09T01:19:49.785Z,100078.75
2022-11-09T01:24:51.581Z,100074.75
2022-11-09T01:29:53.395Z,100073.25
2022-11-09T01:34:56.575Z,100073.47
2022-11-09T01:39:58.358Z,100075.56
2022-11-09T01:45:33.430Z,100070.03
2022-11-09T01:50:40.838Z,100066.53
2022-11-09T01:55:44.155Z,100077.56
2022-11-09T02:00:47.671Z,100069.56
2022-11-09T02:05:50.979Z,100063.19
2022-11-09T02:10:57.252Z,100054.16
2022-11-09T02:15:59.096Z,100062.16
2022-11-09T02:21:02.224Z,100055.97
2022-11-09T02:26:07.016Z,100052.47
2022-11-09T02:31:11.268Z,100066.50
2022-11-09T02:36:16.724Z,100064.59
2022-11-09T02:41:18.794Z,100072.78
2022-11-09T02:46:23.244Z,100063.28
2022-11-09T02:51:28.252Z,100061.84
2022-11-09T02:56:30.680Z,100058.41
2022-11-09T03:01:32.886Z,100055.75
2022-11-09T03:06:37.279Z,100062.63
2022-11-09T03:11:45.480Z,100073.63
2022-11-09T03:16:50.911Z,100068.56
2022-11-09T03:21:55.181Z,100059.66
2022-11-09T03:26:59.142Z,100064.75
2022-11-09T03:32:02.150Z,100070.41
2022-11-09T03:37:05.525Z,100071.16
2022-11-09T03:42:07.783Z,100068.38
2022-11-09T03:47:11.399Z,100055.97
2022-11-09T03:52:14.655Z,100057.16
2022-11-09T03:57:16.577Z,100059.25
2022-11-09T04:02:18.572Z,100051.53
2022-11-09T04:07:21.894Z,100049.53
2022-11-09T04:12:23.944Z,100063.78
2022-11-09T04:17:25.801Z,100079.63
2022-11-09T04:22:28.978Z,100068.41
2022-11-09T04:27:30.936Z,100065.06
2022-11-09T04:32:32.895Z,100074.97
2022-11-09T04:37:36.184Z,100063.41
2022-11-09T04:42:38.110Z,100063.97
2022-11-09T04:47:40.085Z,100056.47
2022-11-09T04:52:43.303Z,100061.16
2022-11-09T04:57:45.241Z,100058.94
2022-11-09T05:02:47.086Z,100057.25
2022-11-09T05:07:50.404Z,100045.75
2022-11-09T05:12:57.552Z,100044.91
2022-11-09T05:17:59.435Z,100062.69
2022-11-09T05:23:21.294Z,100064.81
2022-11-09T05:28:23.278Z,100069.28
2022-11-09T05:33:25.078Z,100071.91
2022-11-09T05:38:28.232Z,100064.28
2022-11-09T05:43:30.036Z,100065.91
2022-11-09T05:48:31.930Z,100070.38
2022-11-09T05:53:35.160Z,100066.75
2022-11-09T05:58:38.710Z,100076.50
2022-11-09T06:03:42.075Z,100071.22
2022-11-09T06:08:45.563Z,100067.94
2022-11-09T06:13:47.360Z,100083.97
2022-11-09T06:18:49.247Z,100083.63
2022-11-09T06:23:52.372Z,100097.47
2022-11-09T06:28:54.154Z,100107.75
2022-11-09T06:33:56.004Z,100111.16
2022-11-09T06:38:59.245Z,100113.63
2022-11-09T06:44:00.956Z,100111.88
2022-11-09T06:49:02.791Z,100110.75
2022-11-09T06:54:06.074Z,100110.94
2022-11-09T06:59:09.096Z,100118.22
2022-11-09T07:04:12.565Z,100124.28
2022-11-09T07:09:15.809Z,100122.59
2022-11-09T07:14:17.675Z,100131.75
2022-11-09T07:19:19.568Z,100130.75
2022-11-09T07:24:22.865Z,100129.34
2022-11-09T07:29:25.016Z,100134.34
2022-11-09T07:34:26.902Z,100121.88
2022-11-09T07:39:30.201Z,100124.97
2022-11-09T07:44:32.070Z,100126.78
2022-11-09T07:49:33.962Z,100135.00
2022-11-09T07:54:37.910Z,100137.06
2022-11-09T07:59:40.151Z,100146.44
2022-11-09T08:04:41.984Z,100148.19
2022-11-09T08:09:45.435Z,100149.34
2022-11-09T08:14:47.208Z,100130.66
2022-11-09T08:19:49.189Z,100143.38
2022-11-09T08:24:52.332Z,100145.28
2022-11-09T08:29:54.209Z,100152.50
2022-11-09T08:34:56.125Z,100154.97
2022-11-09T08:39:59.360Z,100154.22
2022-11-09T08:45:01.244Z,100157.81
2022-11-09T08:50:06.247Z,100150.28
2022-11-09T08:55:09.664Z,100162.19
2022-11-09T09:00:12.646Z,100165.25
2022-11-09T09:05:14.424Z,100179.94
2022-11-09T09:10:17.943Z,100173.63
2022-11-09T09:15:19.693Z,100170.56
2022-11-09T09:20:21.433Z,100174.16
2022-11-09T09:25:24.762Z,100167.94
2022-11-09T09:30:26.688Z,100174.50
2022-11-09T09:35:28.644Z,100180.34
2022-11-09T09:40:33.545Z,100179.72
2022-11-09T09:45:35.427Z,100185.84
2022-11-09T09:50:40.173Z,100207.03
2022-11-09T09:55:44.720Z,100200.97
2022-11-09T10:00:46.467Z,100200.13
2022-11-09T10:05:53.018Z,100208.34
2022-11-09T10:11:03.101Z,100194.16
2022-11-09T10:16:07.851Z,100206.25
2022-11-09T10:21:18.492Z,100218.66
2022-11-09T10:26:23.817Z,100214.97
2022-11-09T10:31:25.514Z,100215.16
2022-11-09T10:36:29.866Z,100214.56
2022-11-09T10:41:34.818Z,100212.16
2022-11-09T10:47:02.098Z,100211.88
2022-11-09T10:52:33.152Z,100198.66
2022-11-09T10:57:57.882Z,100193.38
2022-11-09T11:03:18.773Z,100191.84
2022-11-09T11:08:40.073Z,100178.84
2022-11-09T11:14:15.912Z,100192.13
2022-11-09T11:19:40.409Z,100193.38
2022-11-09T11:25:01.716Z,100195.22
2022-11-09T11:30:28.449Z,100205.97
2022-11-09T11:35:50.234Z,100191.38
2022-11-09T11:41:21.497Z,100202.41
2022-11-09T11:46:45.863Z,100197.84
2022-11-09T11:52:07.963Z,100185.72
2022-11-09T11:57:32.435Z,100159.03
2022-11-09T12:03:26.408Z,100174.81
2022-11-09T12:08:57.736Z,100181.63
2022-11-09T12:14:25.094Z,100191.50
2022-11-09T12:19:52.723Z,100187.81
2022-11-09T12:25:16.437Z,100183.72
2022-11-09T12:30:45.601Z,100187.69
2022-11-09T12:36:09.462Z,100192.78
2022-11-09T12:41:33.472Z,100191.97
2022-11-09T12:46:57.241Z,100193.72
2022-11-09T12:52:20.954Z,100186.41
2022-11-09T12:57:44.371Z,100184.94
2022-11-09T13:03:05.500Z,100180.34
2022-11-09T13:08:29.131Z,100179.56
2022-11-09T13:13:49.688Z,100192.94
2022-11-09T13:19:10.172Z,100186.63
2022-11-09T13:24:53.106Z,100190.78
2022-11-09T13:30:50.154Z,100189.59
2022-11-09T13:36:19.669Z,100199.78
2022-11-09T13:41:42.174Z,100203.09
2022-11-09T13:47:02.320Z,100192.88
2022-11-09T13:52:48.544Z,100200.56
2022-11-09T13:58:13.456Z,100202.59
2022-11-09T14:03:33.915Z,100200.97
2022-11-09T14:08:54.390Z,100201.13
2022-11-09T14:14:34.836Z,100210.84
2022-11-09T14:20:11.887Z,100204.09
2022-11-09T14:25:34.386Z,100210.84
2022-11-09T14:30:55.997Z,100220.19
2022-11-09T14:36:16.454Z,100216.72
2022-11-09T14:41:36.592Z,100229.69
2022-11-09T14:46:58.386Z,100232.28
2022-11-09T14:52:21.403Z,100238.81
2022-11-09T14:57:41.720Z,100244.00
2022-11-09T15:03:25.263Z,100242.75
2022-11-09T15:08:49.854Z,100257.88
2022-11-09T15:14:14.793Z,100261.53
2022-11-09T15:19:39.385Z,100267.63
2022-11-09T15:24:59.855Z,100277.28
2022-11-09T15:30:31.018Z,100281.88
2022-11-09T15:35:53.842Z,100282.38
2022-11-09T15:41:16.137Z,100277.78
2022-11-09T15:46:39.775Z,100282.28
2022-11-09T15:52:01.437Z,100291.97
2022-11-09T15:57:21.803Z,100297.28
2022-11-09T16:02:42.944Z,100300.06
2022-11-09T16:08:07.501Z,100315.06
2022-11-09T16:13:28.867Z,100304.91
2022-11-09T16:18:49.148Z,100307.59
2022-11-09T16:24:10.835Z,100305.81
2022-11-09T16:29:31.692Z,100314.06
2022-11-09T16:35:15.299Z,100318.13
2022-11-09T16:40:34.553Z,100325.34
2022-11-09T16:45:54.743Z,100325.34
2022-11-09T16:51:15.087Z,100334.09
2022-11-09T16:56:36.494Z,100341.75
2022-11-09T17:01:57.983Z,100332.72
2022-11-09T17:07:18.180Z,100351.88
2022-11-09T17:12:39.853Z,100343.09
2022-11-09T17:18:00.352Z,100351.94
2022-11-09T17:23:20.755Z,100354.66
2022-11-09T17:28:43.388Z,100361.91
2022-11-09T17:34:04.034Z,100364.63
2022-11-09T17:39:24.438Z,100366.00
2022-11-09T17:44:46.284Z,100373.34
2022-11-09T17:50:07.961Z,100368.16
2022-11-09T17:55:28.517Z,100379.53
2022-11-09T18:00:50.478Z,100386.84
2022-11-09T18:06:12.119Z,100400.41
2022-11-09T18:11:33.616Z,100405.78
2022-11-09T18:16:55.312Z,100416.47
2022-11-09T18:22:15.837Z,100425.94
2022-11-09T18:27:36.493Z,100427.91
2022-11-09T18:32:58.391Z,100432.31
2022-11-09T18:38:20.229Z,100440.19
2022-11-09T18:43:41.125Z,100430.75
2022-11-09T18:49:03.001Z,100436.81
2022-11-09T18:54:23.725Z,100437.78
2022-11-09T18:59:44.179Z,100441.34
2022-11-09T19:05:06.858Z,100443.91
2022-11-09T19:10:27.319Z,100455.25
2022-11-09T19:15:47.752Z,100458.25
2022-11-09T19:21:21.374Z,100465.00
2022-11-09T19:26:42.077Z,100467.59
2022-11-09T19:32:02.188Z,100469.47
2022-11-09T19:37:24.049Z,100476.44
2022-11-09T19:42:44.285Z,100479.13
2022-11-09T19:48:05.101Z,100482.72
2022-11-09T19:53:28.399Z,100498.28
2022-11-09T19:58:49.340Z,100505.28
2022-11-09T20:04:10.620Z,100515.84
2022-11-09T20:09:32.969Z,100522.78
2022-11-09T20:14:53.765Z,100535.22
2022-11-09T20:20:17.380Z,100541.44
2022-11-09T20:25:39.385Z,100554.59
2022-11-09T20:30:59.899Z,100560.63
2022-11-09T20:36:20.099Z,100560.69
2022-11-09T20:41:42.025Z,100571.06
2022-11-09T20:47:02.787Z,100587.63
2022-11-09T20:52:23.565Z,100593.53
2022-11-09T20:57:45.193Z,100588.97
2022-11-09T21:03:06.467Z,100593.06
2022-11-09T21:08:27.341Z,100596.44
2022-11-09T21:13:50.072Z,100600.81
2022-11-09T21:19:11.012Z,100614.66
2022-11-09T21:24:50.925Z,100615.19
2022-11-09T21:30:13.183Z,100624.84
2022-11-09T21:35:33.601Z,100620.19
2022-11-09T21:40:53.946Z,100635.75
2022-11-09T21:46:15.900Z,100646.13
2022-11-09T21:51:37.060Z,100649.63
2022-11-09T21:56:57.455Z,100648.88
2022-11-09T22:02:19.202Z,100658.50
2022-11-09T22:07:39.709Z,100671.63
2022-11-09T22:13:19.055Z,100668.41
2022-11-09T22:18:59.854Z,100676.22
2022-11-09T22:24:20.724Z,100686.50
2022-11-09T22:29:41.331Z,100687.41
2022-11-09T22:35:03.437Z,100702.13
2022-11-09T22:40:23.741Z,100704.75
2022-11-09T22:45:43.889Z,100705.59
2022-11-09T22:51:05.582Z,100721.22
2022-11-09T22:56:26.097Z,100731.84
2022-11-09T23:01:46.460Z,100737.44
2022-11-09T23:07:08.231Z,100747.88
2022-11-09T23:12:28.784Z,100747.84
2022-11-09T23:18:24.606Z,100755.22
2022-11-09T23:23:46.109Z,100759.63
2022-11-09T23:29:06.467Z,100767.78
2022-11-09T23:34:26.897Z,100770.59
2022-11-09T23:39:48.526Z,100780.28
2022-11-09T23:45:09.599Z,100794.34
2022-11-09T23:50:30.507Z,100797.84
2022-11-09T23:55:52.354Z,100794.44
